TimeCST,TemperatureF,Dew PointF,Humidity,Sea Level PressureIn,VisibilityMPH,Wind Direction,Wind SpeedMPH,Gust SpeedMPH,PrecipitationIn,Events,Conditions,WindDirDegrees,DateUTC
12:15 AM,-18.0,-23.1,78,30.45,10.0,Calm,Calm,-,N/A,,Clear,0,2014-01-01 06:15:00
12:35 AM,-18.6,-24.2,76,30.45,10.0,Calm,Calm,-,N/A,,Scattered Clouds,0,2014-01-01 06:35:00
12:55 AM,-19.5,-24.9,76,30.46,10.0,SW,4.6,-,N/A,,Scattered Clouds,230,2014-01-01 06:55:00
1:15 AM,-18.4,-23.8,76,30.46,10.0,South,3.5,-,N/A,,Mostly Cloudy,190,2014-01-01 07:15:00
1:35 AM,-17.0,-22.0,78,30.47,10.0,Calm,Calm,-,N/A,,Overcast,0,2014-01-01 07:35:00
1:55 AM,-16.6,-22.2,76,30.47,10.0,Calm,Calm,-,N/A,,Overcast,0,2014-01-01 07:55:00
2:15 AM,-15.9,-21.5,76,30.47,10.0,Calm,Calm,-,N/A,,Overcast,0,2014-01-01 08:15:00
2:35 AM,-15.2,-21.1,75,30.48,10.0,WNW,3.5,-,N/A,,Overcast,290,2014-01-01 08:35:00
2:55 AM,-13.2,-19.7,73,30.47,10.0,NW,5.8,-,N/A,,Overcast,310,2014-01-01 08:55:00
3:15 AM,-13.4,-20.4,71,30.47,10.0,WNW,3.5,-,N/A,,Overcast,290,2014-01-01 09:15:00
3:35 AM,-13.7,-20.4,72,30.46,10.0,West,3.5,-,N/A,,Mostly Cloudy,260,2014-01-01 09:35:00
3:55 AM,-14.1,-20.4,73,30.46,10.0,Calm,Calm,-,N/A,,Overcast,0,2014-01-01 09:55:00
4:15 AM,-15.7,-21.6,75,30.46,10.0,NW,4.6,-,N/A,,Overcast,310,2014-01-01 10:15:00
4:35 AM,-16.2,-22.5,73,30.46,10.0,WNW,3.5,-,N/A,,Scattered Clouds,300,2014-01-01 10:35:00
4:55 AM,-15.2,-22.0,71,30.46,10.0,WNW,3.5,-,N/A,,Clear,290,2014-01-01 10:55:00
5:15 AM,-16.1,-22.5,72,30.46,10.0,NW,3.5,-,N/A,,Scattered Clouds,320,2014-01-01 11:15:00
5:35 AM,-17.7,-24.0,73,30.46,10.0,Calm,Calm,-,N/A,,Mostly Cloudy,0,2014-01-01 11:35:00
5:55 AM,-16.2,-22.0,75,30.46,10.0,Calm,Calm,-,N/A,,Overcast,0,2014-01-01 11:55:00
6:15 AM,-15.0,-21.3,73,30.46,10.0,Calm,Calm,-,N/A,,Overcast,0,2014-01-01 12:15:00
6:35 AM,-15.9,-21.3,77,30.47,10.0,WSW,4.6,-,N/A,,Overcast,240,2014-01-01 12:35:00
6:55 AM,-15.9,-22.0,74,30.49,10.0,WSW,6.9,-,N/A,,Overcast,240,2014-01-01 12:55:00
7:15 AM,-15.7,-21.6,75,30.49,10.0,WSW,4.6,-,N/A,,Overcast,250,2014-01-01 13:15:00
7:35 AM,-15.0,-21.5,73,30.49,10.0,WSW,5.8,-,N/A,,Overcast,240,2014-01-01 13:35:00
7:55 AM,-14.8,-21.1,73,30.50,10.0,WSW,4.6,-,N/A,,Mostly Cloudy,250,2014-01-01 13:55:00
8:15 AM,-14.3,-20.7,73,30.51,10.0,West,4.6,-,N/A,,Clear,260,2014-01-01 14:15:00
8:35 AM,-13.7,-20.2,73,30.52,10.0,WSW,4.6,-,N/A,,Scattered Clouds,250,2014-01-01 14:35:00
8:55 AM,-13.0,-19.7,72,30.52,10.0,WSW,3.5,-,N/A,,Scattered Clouds,240,2014-01-01 14:55:00
9:15 AM,-12.5,-19.3,72,30.53,10.0,SW,4.6,-,N/A,,Scattered Clouds,230,2014-01-01 15:15:00
9:35 AM,-11.7,-19.3,69,30.54,10.0,WSW,3.5,-,N/A,,Mostly Cloudy,240,2014-01-01 15:35:00
9:55 AM,-11.4,-19.3,68,30.54,10.0,West,3.5,-,N/A,,Overcast,260,2014-01-01 15:55:00
10:15 AM,-10.8,-19.3,66,30.55,10.0,WSW,4.6,-,N/A,,Overcast,240,2014-01-01 16:15:00
10:35 AM,-10.5,-19.1,66,30.55,10.0,SW,4.6,-,N/A,,Overcast,230,2014-01-01 16:35:00
10:55 AM,-9.9,-19.1,64,30.54,10.0,West,3.5,-,N/A,,Overcast,270,2014-01-01 16:55:00
11:15 AM,-9.4,-18.6,64,30.54,10.0,WSW,3.5,-,N/A,,Overcast,250,2014-01-01 17:15:00
11:35 AM,-8.5,-18.0,63,30.53,10.0,West,4.6,-,N/A,,Overcast,260,2014-01-01 17:35:00
11:55 AM,-7.6,-17.0,64,30.52,10.0,West,3.5,-,N/A,,Overcast,260,2014-01-01 17:55:00
12:15 PM,-6.7,-16.1,64,30.51,10.0,Calm,Calm,-,N/A,,Overcast,0,2014-01-01 18:15:00
12:35 PM,-6.0,-15.7,63,30.51,10.0,WSW,3.5,-,N/A,,Overcast,240,2014-01-01 18:35:00
12:55 PM,-5.3,-15.0,63,30.50,10.0,Calm,Calm,-,N/A,,Overcast,0,2014-01-01 18:55:00
1:15 PM,-4.9,-14.8,62,30.49,10.0,WSW,3.5,-,N/A,,Overcast,240,2014-01-01 19:15:00
1:35 PM,-4.2,-14.1,63,30.48,10.0,SW,3.5,-,N/A,,Mostly Cloudy,230,2014-01-01 19:35:00
1:55 PM,-3.6,-13.9,62,30.48,10.0,Calm,Calm,-,N/A,,Scattered Clouds,0,2014-01-01 19:55:00
2:15 PM,-3.1,-13.2,62,30.48,10.0,West,3.5,-,N/A,,Scattered Clouds,260,2014-01-01 20:15:00
2:35 PM,-2.6,-13.9,59,30.47,10.0,WSW,4.6,-,N/A,,Scattered Clouds,240,2014-01-01 20:35:00
2:55 PM,-2.2,-14.8,55,30.47,10.0,West,3.5,-,N/A,,Scattered Clouds,270,2014-01-01 20:55:00
3:15 PM,-2.2,-15.0,55,30.47,10.0,West,3.5,-,N/A,,Scattered Clouds,260,2014-01-01 21:15:00
3:35 PM,-2.2,-15.0,55,30.47,10.0,West,3.5,-,N/A,,Clear,280,2014-01-01 21:35:00
3:55 PM,-2.2,-14.6,56,30.47,10.0,WSW,3.5,-,N/A,,Scattered Clouds,250,2014-01-01 21:55:00
4:15 PM,-2.2,-14.1,57,30.47,10.0,Calm,Calm,-,N/A,,Scattered Clouds,0,2014-01-01 22:15:00
4:35 PM,-2.2,-13.9,58,30.47,10.0,Calm,Calm,-,N/A,,Scattered Clouds,0,2014-01-01 22:35:00
4:55 PM,-2.6,-12.5,63,30.48,10.0,Calm,Calm,-,N/A,,Mostly Cloudy,0,2014-01-01 22:55:00
5:15 PM,-3.6,-12.3,67,30.48,10.0,Calm,Calm,-,N/A,,Overcast,0,2014-01-01 23:15:00
5:35 PM,-4.2,-12.5,68,30.48,10.0,North,3.5,-,N/A,,Mostly Cloudy,350,2014-01-01 23:35:00
5:55 PM,-6.0,-15.0,65,30.49,10.0,Calm,Calm,-,N/A,,Scattered Clouds,0,2014-01-01 23:55:00
6:15 PM,-6.5,-15.9,64,30.49,10.0,NNW,3.5,-,N/A,,Clear,330,2014-01-02 00:15:00
6:35 PM,-8.3,-15.7,70,30.49,10.0,NW,3.5,-,N/A,,Clear,310,2014-01-02 00:35:00
6:55 PM,-9.4,-16.4,71,30.49,10.0,Calm,Calm,-,N/A,,Clear,0,2014-01-02 00:55:00
7:15 PM,-11.0,-17.9,72,30.50,10.0,West,4.6,-,N/A,,Clear,280,2014-01-02 01:15:00
7:35 PM,-11.6,-17.9,74,30.49,10.0,West,3.5,-,N/A,,Scattered Clouds,280,2014-01-02 01:35:00
7:55 PM,-11.7,-18.0,74,30.49,10.0,Calm,Calm,-,N/A,,Mostly Cloudy,0,2014-01-02 01:55:00
8:15 PM,-11.7,-17.7,75,30.49,10.0,Calm,Calm,-,N/A,,Overcast,0,2014-01-02 02:15:00
8:35 PM,-9.8,-17.1,70,30.49,10.0,Calm,Calm,-,N/A,,Overcast,0,2014-01-02 02:35:00
8:55 PM,-10.8,-18.0,70,30.48,10.0,Calm,Calm,-,N/A,,Mostly Cloudy,0,2014-01-02 02:55:00
9:15 PM,-11.0,-17.7,72,30.47,10.0,WNW,3.5,-,N/A,,Mostly Cloudy,290,2014-01-02 03:15:00
9:35 PM,-11.0,-17.7,72,30.47,10.0,Calm,Calm,-,N/A,,Scattered Clouds,0,2014-01-02 03:35:00
9:55 PM,-10.5,-17.0,73,30.47,10.0,Calm,Calm,-,N/A,,Mostly Cloudy,0,2014-01-02 03:55:00
10:15 PM,-10.3,-16.1,76,30.47,10.0,West,4.6,-,N/A,,Scattered Clouds,260,2014-01-02 04:15:00
10:35 PM,-11.9,-18.6,72,30.47,10.0,WSW,3.5,-,N/A,,Clear,250,2014-01-02 04:35:00
10:55 PM,-11.6,-18.2,72,30.47,10.0,West,3.5,-,N/A,,Clear,270,2014-01-02 04:55:00
11:15 PM,-15.3,-20.9,76,30.47,10.0,WSW,3.5,-,N/A,,Clear,250,2014-01-02 05:15:00
11:35 PM,-14.6,-19.3,79,30.47,10.0,SW,4.6,-,N/A,,Clear,230,2014-01-02 05:35:00
11:55 PM,-13.7,-18.6,79,30.46,10.0,West,4.6,-,N/A,,Clear,270,2014-01-02 05:55:00